Accueil
METAR-TAF:

METAR-TAF

Aéroports :

Nenana, Alaska, États-Unis

latitude: 64-33N, longitude: 149-05W, altitude: 110 m

Observation

Le bulletin a été fait il y a 44 minutes, à 15:11 UTC
Vent 10 kt de ouest/sud-ouest avec des rafales jusqu'à 19 kt
Température 0°C
Humidité 86%
Pression 1026 hPa
Visibilité: 4.8 km
Nuages épars à une hauteur de 900 ft
Nuages fragmentés à une hauteur de 1900 ft
Ciel couvert à une hauteur de 3600 ft
neige faible, brume

METAR: PANN 201511Z AUTO 24010G19KT 3SM -SN BR SCT009 BKN019 OVC036 00/M02 A3029 RMK AO2 P0001 T00001017 TSNO

Heure: 06:55 (15:55 UTC)


TAF: absent

Observations et prévisions météorologiques de plus de 4000 aéroports (messages METAR et TAF).

Les stations disponibles sont représentées par des disques jaunes et rouges sur la carte.

Passer la souris dessus pour voir le nom de la station.

Cliquer dessus pour voir les observations et prévisions météorologiques.

Pour changer de carte: cliquez sur les boutons verts avec une croix noire pour zoomer, sur le bouton vert avec un tiret pour effectuer un zoom arrière, ou sur les flèches vertes pour les cartes adjacentes.


METAR-TAF: